createdAt,value
2018-02-13T06:22:59.342Z,90.30
2018-02-13T06:25:31.499Z,90.30
2018-02-13T06:28:04.186Z,90.30
2018-02-13T06:30:36.073Z,90.30
2018-02-13T06:33:07.966Z,90.30
2018-02-13T06:35:39.834Z,90.40
2018-02-13T06:38:11.718Z,90.40
2018-02-13T06:40:43.591Z,90.50
2018-02-13T06:43:15.575Z,90.50
2018-02-13T06:45:47.547Z,90.60
2018-02-13T06:48:19.666Z,90.60
2018-02-13T06:50:51.543Z,90.70
2018-02-13T06:53:23.441Z,90.80
2018-02-13T06:55:55.311Z,90.70
2018-02-13T06:58:27.243Z,90.60
2018-02-13T07:00:59.107Z,90.50
2018-02-13T07:03:31.125Z,90.40
2018-02-13T07:06:03.787Z,90.40
2018-02-13T07:08:35.775Z,90.40
2018-02-13T07:11:07.651Z,90.50
2018-02-13T07:13:39.643Z,90.40
2018-02-13T07:16:11.537Z,90.40
2018-02-13T07:18:44.242Z,90.30
2018-02-13T07:21:16.127Z,90.30
2018-02-13T07:23:48.011Z,90.30
2018-02-13T07:26:19.903Z,90.10
2018-02-13T07:28:52.544Z,90.00
2018-02-13T07:31:24.427Z,90.00
2018-02-13T07:33:56.624Z,90.00
2018-02-13T07:36:28.491Z,89.90
2018-02-13T07:39:00.371Z,90.00
2018-02-13T07:41:32.253Z,89.70
2018-02-13T07:44:04.138Z,89.80
2018-02-13T07:46:36.782Z,89.80
2018-02-13T07:49:08.663Z,89.60
2018-02-13T07:51:40.522Z,89.20
2018-02-13T07:54:12.419Z,89.20
2018-02-13T07:56:44.295Z,89.10
2018-02-13T07:59:16.183Z,89.30
2018-02-13T08:01:48.054Z,89.00
2018-02-13T08:04:19.940Z,89.10
2018-02-13T08:06:52.847Z,88.40
2018-02-13T08:09:24.739Z,88.40
2018-02-13T08:11:56.613Z,88.20
2018-02-13T08:14:28.503Z,87.70
2018-02-13T08:17:01.192Z,87.50
2018-02-13T08:19:33.043Z,87.50
2018-02-13T08:22:05.682Z,87.60
2018-02-13T08:24:37.575Z,87.60
2018-02-13T08:27:09.767Z,87.40
2018-02-13T08:29:41.651Z,88.10
2018-02-13T08:32:13.529Z,87.20
2018-02-13T08:34:45.422Z,87.10
2018-02-13T08:37:17.291Z,86.90
2018-02-13T08:39:49.979Z,86.60
2018-02-13T08:42:21.852Z,86.60
2018-02-13T08:44:53.760Z,86.80
2018-02-13T08:47:25.639Z,86.50
2018-02-13T08:49:57.558Z,86.30
2018-02-13T08:52:29.435Z,85.70
2018-02-13T08:55:01.325Z,85.40
2018-02-13T08:57:33.195Z,85.20
2018-02-13T09:00:05.848Z,85.10
2018-02-13T09:02:37.710Z,85.10
2018-02-13T09:05:09.605Z,85.20
2018-02-13T09:07:41.511Z,84.50
2018-02-13T09:10:13.420Z,84.70
2018-02-13T09:12:46.055Z,84.70
2018-02-13T09:15:17.951Z,84.70
2018-02-13T09:17:50.590Z,84.70
2018-02-13T09:20:22.528Z,84.70
2018-02-13T09:22:54.383Z,84.20
2018-02-13T09:25:26.263Z,84.20
2018-02-13T09:27:58.139Z,84.00
2018-02-13T09:30:30.026Z,84.30
2018-02-13T09:33:02.926Z,83.80
2018-02-13T09:35:34.812Z,83.80
2018-02-13T09:38:06.901Z,83.60
2018-02-13T09:40:38.775Z,83.80
2018-02-13T09:43:10.648Z,83.90
2018-02-13T09:45:43.314Z,83.40
2018-02-13T09:48:15.178Z,83.40
2018-02-13T09:50:47.073Z,83.80
2018-02-13T09:53:18.943Z,83.80
2018-02-13T09:55:50.838Z,83.80
2018-02-13T09:58:22.702Z,83.00
2018-02-13T10:00:54.818Z,82.60
2018-02-13T10:03:26.703Z,82.60
2018-02-13T10:05:58.582Z,82.70
2018-02-13T10:08:30.496Z,81.70
2018-02-13T10:11:02.342Z,82.00
2018-02-13T10:13:34.219Z,81.60
2018-02-13T10:16:12.115Z,81.10
2018-02-13T10:18:44.018Z,80.50
2018-02-13T10:21:15.911Z,79.90
2018-02-13T10:23:47.800Z,79.50
2018-02-13T10:26:19.712Z,78.50
2018-02-13T10:28:51.586Z,79.10
2018-02-13T10:31:23.475Z,79.00
2018-02-13T10:33:55.652Z,78.30
2018-02-13T10:36:27.559Z,78.00
2018-02-13T10:38:59.443Z,77.90
2018-02-13T10:41:32.100Z,77.50
2018-02-13T10:44:03.967Z,77.50
2018-02-13T10:46:35.850Z,77.00
2018-02-13T10:49:08.500Z,76.00
2018-02-13T10:51:40.386Z,76.00
2018-02-13T10:54:13.023Z,76.60
2018-02-13T10:56:44.907Z,76.60
2018-02-13T10:59:18.130Z,76.50
2018-02-13T11:01:51.273Z,76.50
2018-02-13T11:04:23.139Z,76.30
2018-02-13T11:06:55.042Z,76.00
2018-02-13T11:09:26.918Z,75.80
2018-02-13T11:11:58.807Z,75.20
2018-02-13T11:14:31.467Z,74.40
2018-02-13T11:17:03.342Z,74.40
2018-02-13T11:19:35.231Z,75.30
2018-02-13T11:22:07.423Z,73.90
2018-02-13T11:24:39.294Z,73.30
2018-02-13T11:27:11.191Z,73.90
2018-02-13T11:29:43.070Z,73.10
2018-02-13T11:32:14.962Z,73.10
2018-02-13T11:34:47.596Z,72.10
2018-02-13T11:37:19.479Z,72.10
2018-02-13T11:39:52.123Z,71.40
2018-02-13T11:42:24.015Z,71.40
2018-02-13T11:44:55.878Z,70.60
2018-02-13T11:47:28.540Z,70.00
2018-02-13T11:50:00.433Z,70.60
2018-02-13T11:52:33.319Z,69.60
2018-02-13T11:55:05.191Z,69.60
2018-02-13T11:57:37.116Z,69.00
2018-02-13T12:00:08.995Z,69.30
2018-02-13T12:02:41.648Z,68.80
2018-02-13T12:05:13.847Z,68.80
2018-02-13T12:07:45.731Z,67.60
2018-02-13T12:10:17.599Z,67.70
2018-02-13T12:12:49.515Z,67.10
2018-02-13T12:15:22.154Z,66.50
2018-02-13T12:17:54.276Z,66.50
2018-02-13T12:20:26.150Z,66.30
2018-02-13T12:22:58.298Z,65.90
2018-02-13T12:25:40.955Z,66.10
2018-02-13T12:28:13.092Z,66.70
2018-02-13T12:30:44.951Z,66.60
2018-02-13T12:33:16.836Z,67.00
2018-02-13T12:35:48.698Z,66.70
2018-02-13T12:38:20.823Z,66.50
2018-02-13T12:40:53.599Z,66.30
2018-02-13T12:43:26.235Z,65.70
2018-02-13T12:45:58.451Z,65.70
2018-02-13T12:48:30.348Z,64.20
2018-02-13T12:51:02.228Z,64.40
2018-02-13T12:53:34.102Z,64.10
2018-02-13T12:56:05.976Z,62.80
2018-02-13T12:58:38.623Z,62.70
2018-02-13T13:01:10.834Z,62.60
2018-02-13T13:03:42.753Z,62.00
2018-02-13T13:06:14.966Z,61.50
2018-02-13T13:08:46.850Z,60.20
2018-02-13T13:11:18.710Z,60.20
2018-02-13T13:13:50.595Z,60.10
2018-02-13T13:16:22.707Z,60.70
2018-02-13T13:18:54.603Z,61.10
2018-02-13T13:21:26.479Z,61.20
2018-02-13T13:23:58.367Z,61.80
2018-02-13T13:26:30.456Z,61.50
2018-02-13T13:29:02.344Z,60.80
2018-02-13T13:31:34.599Z,61.50
2018-02-13T13:34:06.471Z,60.60
2018-02-13T13:36:38.371Z,59.90
2018-02-13T13:39:10.243Z,60.30
2018-02-13T13:41:42.111Z,60.50
2018-02-13T13:44:14.763Z,59.60
2018-02-13T13:46:46.632Z,59.60
2018-02-13T13:49:18.503Z,58.60
2018-02-13T13:51:51.137Z,57.50
2018-02-13T13:54:23.023Z,57.50
2018-02-13T13:56:54.886Z,58.30
2018-02-13T13:59:26.774Z,58.50
2018-02-13T14:01:59.405Z,58.90
2018-02-13T14:04:31.291Z,58.80
2018-02-13T14:07:03.379Z,59.30
2018-02-13T14:09:35.258Z,58.60
2018-02-13T14:12:07.134Z,58.70
2018-02-13T14:14:39.023Z,58.60
2018-02-13T14:17:11.124Z,58.40
2018-02-13T14:19:43.291Z,57.80
2018-02-13T14:22:15.947Z,57.10
2018-02-13T14:24:48.134Z,57.00
2018-02-13T14:27:20.303Z,57.20
2018-02-13T14:29:52.180Z,57.10
2018-02-13T14:32:24.051Z,57.20
2018-02-13T14:34:55.932Z,57.60
2018-02-13T14:37:27.814Z,58.00
2018-02-13T14:39:59.706Z,58.40
2018-02-13T14:42:31.571Z,58.60
2018-02-13T14:45:03.450Z,59.20
2018-02-13T14:47:35.336Z,59.50
2018-02-13T14:50:07.212Z,59.20
2018-02-13T14:52:39.082Z,59.60
2018-02-13T14:55:11.083Z,59.60
2018-02-13T14:57:42.949Z,58.70
2018-02-13T15:00:14.831Z,58.80
2018-02-13T15:02:46.745Z,59.90
2018-02-13T15:05:19.387Z,58.80
2018-02-13T15:07:51.253Z,58.80
2018-02-13T15:10:23.135Z,59.00
2018-02-13T15:12:55.773Z,59.70
2018-02-13T15:15:27.662Z,60.30
2018-02-13T15:18:00.567Z,60.00
2018-02-13T15:20:32.450Z,59.40
2018-02-13T15:23:04.311Z,59.90
2018-02-13T15:25:36.302Z,59.60
2018-02-13T15:28:08.162Z,60.00
2018-02-13T15:30:40.820Z,60.80
2018-02-13T15:33:12.698Z,61.00
2018-02-13T15:35:44.587Z,60.10
2018-02-13T15:38:17.430Z,60.60
2018-02-13T15:40:49.315Z,60.50
2018-02-13T15:43:21.431Z,59.80
2018-02-13T15:45:53.331Z,59.70
2018-02-13T15:48:25.200Z,59.40
2018-02-13T15:50:58.716Z,59.60
2018-02-13T15:53:31.643Z,59.80
2018-02-13T15:56:03.685Z,59.60
2018-02-13T15:58:35.593Z,59.60
2018-02-13T16:01:08.232Z,59.30
2018-02-13T16:03:40.099Z,58.90
2018-02-13T16:06:11.976Z,59.70
2018-02-13T16:08:44.013Z,59.50
2018-02-13T16:11:16.876Z,60.40
2018-02-13T16:13:48.857Z,60.40
2018-02-13T16:16:20.742Z,61.10
2018-02-13T16:18:52.611Z,60.00
2018-02-13T16:21:25.679Z,60.50
2018-02-13T16:23:57.751Z,59.60
2018-02-13T16:26:29.657Z,59.90
2018-02-13T16:29:01.846Z,60.10
2018-02-13T16:31:33.734Z,59.90
2018-02-13T16:34:05.650Z,59.90
2018-02-13T16:36:37.503Z,60.20
2018-02-13T16:39:10.294Z,60.60
2018-02-13T16:41:42.951Z,60.70
2018-02-13T16:44:14.816Z,60.70
2018-02-13T16:46:47.015Z,61.60
2018-02-13T16:49:18.884Z,61.80
2018-02-13T16:51:50.786Z,62.40
2018-02-13T16:54:23.460Z,63.10
2018-02-13T16:56:56.770Z,63.00
2018-02-13T16:59:29.536Z,63.90
2018-02-13T17:02:01.438Z,63.90
2018-02-13T17:04:33.333Z,64.10
2018-02-13T17:07:06.176Z,64.50
2018-02-13T17:09:38.985Z,63.60
2018-02-13T17:12:10.891Z,64.10
2018-02-13T17:14:42.766Z,64.20
2018-02-13T17:17:14.671Z,64.50
2018-02-13T17:19:46.568Z,64.50
2018-02-13T17:22:18.524Z,65.00
2018-02-13T17:24:50.392Z,65.20
2018-02-13T17:27:22.284Z,64.80
2018-02-13T17:29:54.914Z,64.90
2018-02-13T17:32:26.831Z,64.90
2018-02-13T17:34:59.462Z,65.10
2018-02-13T17:37:31.351Z,65.10
2018-02-13T17:40:03.220Z,64.80
2018-02-13T17:42:35.860Z,65.10
2018-02-13T17:45:07.747Z,65.10
2018-02-13T17:47:39.630Z,65.40
2018-02-13T17:50:11.502Z,65.10
2018-02-13T17:52:43.380Z,65.60
2018-02-13T17:55:15.252Z,65.80
2018-02-13T17:57:47.144Z,66.10
2018-02-13T18:00:19.042Z,66.00
2018-02-13T18:02:50.943Z,66.60
2018-02-13T18:05:22.816Z,66.30
2018-02-13T18:07:54.699Z,66.40
2018-02-13T18:10:27.326Z,66.00
2018-02-13T18:12:59.215Z,66.00
2018-02-13T18:15:32.240Z,66.40
2018-02-13T18:18:04.127Z,66.90
2018-02-13T18:20:36.806Z,66.70
2018-02-13T18:23:08.687Z,66.60
2018-02-13T18:25:40.606Z,66.60
2018-02-13T18:28:12.486Z,66.90
2018-02-13T18:30:44.352Z,66.50
2018-02-13T18:33:16.234Z,65.60
2018-02-13T18:35:48.103Z,65.60
2018-02-13T18:38:20.202Z,66.40
2018-02-13T18:40:52.079Z,66.00
2018-02-13T18:43:24.010Z,68.00
2018-02-13T18:45:56.655Z,66.60
2018-02-13T18:48:28.551Z,66.50
2018-02-13T18:51:01.191Z,66.40
2018-02-13T18:53:33.080Z,66.20
2018-02-13T18:56:04.964Z,66.60
2018-02-13T18:58:36.847Z,66.50
2018-02-13T19:01:08.718Z,66.50
2018-02-13T19:03:40.602Z,66.60
2018-02-13T19:06:12.462Z,66.80
2018-02-13T19:08:44.344Z,66.80
2018-02-13T19:11:16.979Z,66.80
2018-02-13T19:13:49.806Z,66.80
2018-02-13T19:16:22.442Z,66.90
2018-02-13T19:18:54.460Z,66.90
2018-02-13T19:21:26.457Z,67.20
2018-02-13T19:23:58.483Z,67.20
2018-02-13T19:26:30.491Z,67.20
2018-02-13T19:29:02.597Z,66.90
2018-02-13T19:31:34.743Z,66.80
2018-02-13T19:34:06.815Z,67.20
2018-02-13T19:36:39.618Z,67.30
2018-02-13T19:39:12.489Z,67.20
2018-02-13T19:41:46.192Z,67.20
2018-02-13T19:44:18.968Z,67.30
2018-02-13T19:46:51.775Z,67.30
2018-02-13T19:49:23.813Z,67.30
2018-02-13T19:51:55.876Z,67.90
2018-02-13T19:54:28.715Z,67.90
2018-02-13T19:57:00.669Z,67.90
2018-02-13T19:59:32.576Z,68.00
2018-02-13T20:02:04.478Z,67.80
2018-02-13T20:04:36.357Z,68.30
2018-02-13T20:07:08.273Z,68.20
2018-02-13T20:09:40.908Z,68.20
2018-02-13T20:12:12.842Z,68.10
2018-02-13T20:14:44.706Z,68.30
2018-02-13T20:17:16.592Z,68.70
2018-02-13T20:19:48.474Z,69.10
2018-02-13T20:22:20.587Z,69.00
2018-02-13T20:24:52.468Z,69.60
2018-02-13T20:27:24.392Z,69.20
2018-02-13T20:29:57.027Z,69.50
2018-02-13T20:32:28.924Z,69.50
2018-02-13T20:35:01.583Z,69.90
2018-02-13T20:37:33.466Z,69.90
2018-02-13T20:40:06.141Z,69.80
2018-02-13T20:42:38.966Z,69.40
2018-02-13T20:45:11.202Z,69.40
2018-02-13T20:47:43.163Z,70.40
2018-02-13T20:50:15.798Z,70.20
2018-02-13T20:52:47.686Z,70.20
2018-02-13T20:55:20.315Z,70.60
2018-02-13T20:57:52.191Z,70.70
2018-02-13T21:00:24.067Z,70.50
2018-02-13T21:02:55.967Z,71.10
2018-02-13T21:05:28.136Z,71.20
2018-02-13T21:08:00.024Z,71.60
2018-02-13T21:10:32.112Z,71.70
2018-02-13T21:13:03.991Z,71.80
2018-02-13T21:15:35.860Z,71.20
2018-02-13T21:18:08.512Z,71.70
2018-02-13T21:20:40.370Z,71.70
2018-02-13T21:23:12.259Z,71.20
2018-02-13T21:25:44.904Z,71.60
2018-02-13T21:28:16.783Z,71.60
2018-02-13T21:30:48.979Z,71.00
2018-02-13T21:33:20.859Z,71.50
2018-02-13T21:35:52.727Z,71.00
2018-02-13T21:38:24.619Z,71.20
2018-02-13T21:40:56.496Z,71.10
2018-02-13T21:43:28.375Z,71.40
2018-02-13T21:46:00.251Z,71.90
2018-02-13T21:48:32.139Z,71.40
